Portada
METAR-TAF:

METAR-TAF

Aeroports :

Sanya, Xina

latitud: 18-18N, longitud: 109-24E, altitud: 27 m

Observació

L'informe es va fer fa 59 minuts, a les 10:00 UTC
Vent 12 kt del Est
Temperatura 27°C
Humitat 89%
Pressió 1011 hPa
Visibilitat 10 km o més
Núvols disperses a una alçada de 1500 ft

METAR: ZJSY 291000Z 10006MPS 9999 SCT015 27/25 Q1011 NOSIG

Hora: 18:59 (10:59 UTC)

Pronòstic

L'informe es va fer fa 7 hores i 53 minuts, a les 03:06 UTC
Pronòstic vàlid del 29 a les 06 UTC al 30 a les 06 UTC
Vent 12 kt del Est amb ràfegues de 21 kt
Visibilitat 10 km o més
Núvols disperses a una alçada de 2000 ft
Cel ennuvolat a una alçada de 5000 ft
Temporalment
l' 29 a les 06 UTC al 29 a les 10 UTC
Núvols disperses a una alçada de 1600 ft
Escasses núvols a una alçada de 2500 ft, Cumulonimbus.
Cel ennuvolat a una alçada de 4000 ft
xàfecs de pluja

TAF: ZJSY 290306Z 2906/3006 09006G11MPS 9999 SCT020 BKN050 TX31/2906Z TN25/2921Z TEMPO 2906/2910 SHRA SCT016 FEW025CB BKN040

Observacions i pronòstics meteorològics de més de 4000 aeroports (METAR i TAF).

Les estacions disponibles són els punts grocs i vermells al mapa.

Posi el ratolí al punt desitjat per veure el nom de l'estació.

Feu clic per veure les observacions i els pronòstics meteorològics.

Per canviar el mapa: feu clic els botons verds amb una creu de color negre per apropar; al botó verd amb un guió per allunyar la imatge; o en les fletxes verdes per a mapes adjacents.


METAR-TAF: